Time;durP1;ratioP1;P1;durP2;ratioP2;P2;SDS_P1;SDS_P2;PMS_P1;PMS_P2;Temp;Humidity;BMP_temperature;BMP_pressure;BME280_temperature;BME280_humidity;BME280_pressure;Samples;Min_cycle;Max_cycle;Signal;HPM_P1;HPM_P2
2022/07/22 00:01:07;;;;;;;2.72;2.53;;;19.50;99.90;;;;;;5110508;28;20244;-52
2022/07/22 00:03:35;;;;;;;2.92;2.47;;;19.40;99.90;;;;;;5110921;28;20211;-53
2022/07/22 00:06:03;;;;;;;5.50;2.80;;;19.50;99.90;;;;;;5110379;28;20304;-50
2022/07/22 00:08:31;;;;;;;2.85;2.65;;;19.50;99.90;;;;;;5110875;28;20211;-50
2022/07/22 00:10:59;;;;;;;5.75;2.63;;;19.50;99.90;;;;;;5110851;28;20638;-52
2022/07/22 00:13:28;;;;;;;3.25;2.83;;;19.50;99.90;;;;;;5110857;28;20207;-52
2022/07/22 00:15:56;;;;;;;5.30;2.28;;;19.50;99.90;;;;;;5110629;28;20273;-52
2022/07/22 00:18:25;;;;;;;4.07;2.85;;;19.50;99.90;;;;;;5111378;28;20211;-51
2022/07/22 00:20:53;;;;;;;2.92;2.72;;;19.50;99.90;;;;;;5110403;28;20564;-50
2022/07/22 00:23:21;;;;;;;5.63;3.10;;;19.50;99.90;;;;;;5110701;28;20635;-51
2022/07/22 00:25:49;;;;;;;3.33;3.03;;;19.50;99.90;;;;;;5110567;28;20223;-52
2022/07/22 00:28:18;;;;;;;4.57;3.10;;;19.40;99.90;;;;;;5111028;28;20264;-51
2022/07/22 00:30:46;;;;;;;3.88;3.20;;;19.50;99.90;;;;;;5111057;28;20230;-52
2022/07/22 00:33:14;;;;;;;5.15;3.80;;;19.50;99.90;;;;;;5110045;28;20233;-50
2022/07/22 00:35:43;;;;;;;4.35;3.30;;;19.50;99.90;;;;;;5111008;28;20231;-52
2022/07/22 00:38:12;;;;;;;4.47;3.10;;;19.50;99.90;;;;;;5110393;28;20219;-52
2022/07/22 00:40:40;;;;;;;5.32;3.33;;;19.50;99.90;;;;;;5110918;28;20204;-52
2022/07/22 00:43:08;;;;;;;3.30;3.00;;;19.50;99.90;;;;;;5111199;28;20245;-51
2022/07/22 00:45:36;;;;;;;3.05;2.78;;;19.40;99.90;;;;;;5110636;28;20223;-52
2022/07/22 00:48:05;;;;;;;2.53;2.28;;;19.50;99.90;;;;;;5110450;28;20266;-52
2022/07/22 00:50:34;;;;;;;2.50;2.30;;;19.50;99.90;;;;;;5109915;28;20219;-52
2022/07/22 00:53:03;;;;;;;3.15;2.20;;;19.40;99.90;;;;;;5109735;28;20272;-52
2022/07/22 00:55:34;;;;;;;2.75;2.15;;;19.40;99.90;;;;;;5110065;28;20224;-52
2022/07/22 00:58:02;;;;;;;2.30;2.10;;;19.40;99.90;;;;;;5109718;28;20215;-51
2022/07/22 01:00:31;;;;;;;3.17;2.08;;;19.40;99.90;;;;;;5109718;28;20245;-50
2022/07/22 01:02:59;;;;;;;3.78;2.28;;;19.40;99.90;;;;;;5109575;28;20728;-52
2022/07/22 01:05:27;;;;;;;2.60;2.30;;;19.40;99.90;;;;;;5109874;28;20227;-52
2022/07/22 01:07:55;;;;;;;2.20;2.00;;;19.40;99.90;;;;;;5109689;28;20264;-52
2022/07/22 01:10:26;;;;;;;2.65;2.10;;;19.40;99.90;;;;;;5110411;28;20224;-50
2022/07/22 01:12:54;;;;;;;2.55;2.00;;;19.40;99.90;;;;;;5110186;28;20195;-50
2022/07/22 01:15:22;;;;;;;4.75;2.17;;;19.30;99.90;;;;;;5109975;28;21008;-50
2022/07/22 01:17:50;;;;;;;2.53;2.15;;;19.40;99.90;;;;;;5109553;28;20215;-52
2022/07/22 01:20:20;;;;;;;3.25;2.08;;;19.30;99.90;;;;;;5109705;28;20207;-52
2022/07/22 01:22:48;;;;;;;2.25;1.85;;;19.30;99.90;;;;;;5109552;28;20280;-51
2022/07/22 01:25:16;;;;;;;2.10;1.95;;;19.30;99.90;;;;;;5110021;28;20280;-52
2022/07/22 01:27:44;;;;;;;2.45;1.95;;;19.40;99.90;;;;;;5109847;28;20208;-52
2022/07/22 01:30:13;;;;;;;3.67;2.05;;;19.30;99.90;;;;;;5109407;28;20261;-52
2022/07/22 01:32:41;;;;;;;2.25;1.90;;;19.30;99.90;;;;;;5109019;28;20280;-51
2022/07/22 01:35:09;;;;;;;1.80;1.70;;;19.30;99.90;;;;;;5109905;28;20269;-51
2022/07/22 01:37:39;;;;;;;2.10;1.60;;;19.30;99.90;;;;;;5108893;28;20216;-52
2022/07/22 01:40:08;;;;;;;4.45;1.48;;;19.30;99.90;;;;;;5109887;28;20207;-52
2022/07/22 01:42:36;;;;;;;2.20;1.75;;;19.30;99.90;;;;;;5109741;28;20215;-52
2022/07/22 01:45:05;;;;;;;2.05;1.67;;;19.20;99.90;;;;;;5112263;28;20211;-51
2022/07/22 01:47:33;;;;;;;1.95;1.75;;;19.20;99.90;;;;;;5103766;28;20208;-52
2022/07/22 01:50:01;;;;;;;1.60;1.50;;;19.20;99.90;;;;;;5113001;28;20270;-52
2022/07/22 01:52:29;;;;;;;1.77;1.63;;;19.20;99.90;;;;;;5113364;28;20223;-51
2022/07/22 01:54:59;;;;;;;1.98;1.63;;;19.20;99.90;;;;;;5112823;28;20261;-52
2022/07/22 01:57:27;;;;;;;2.15;1.48;;;19.10;99.90;;;;;;5113122;28;20261;-51
2022/07/22 01:59:55;;;;;;;2.08;1.40;;;19.10;99.90;;;;;;5113493;28;20207;-52
2022/07/22 02:02:23;;;;;;;1.73;1.48;;;19.10;99.90;;;;;;5112223;28;20203;-50
2022/07/22 02:04:51;;;;;;;2.05;1.95;;;19.20;99.90;;;;;;5113086;28;20199;-52
2022/07/22 02:07:19;;;;;;;2.35;1.50;;;19.20;99.90;;;;;;5112492;28;20258;-52
2022/07/22 02:09:47;;;;;;;1.73;1.63;;;19.20;99.90;;;;;;5113450;28;20204;-51
2022/07/22 02:12:17;;;;;;;2.20;1.98;;;19.20;99.90;;;;;;5112862;28;20223;-52
2022/07/22 02:14:46;;;;;;;1.83;1.73;;;19.20;99.90;;;;;;5112663;28;20351;-50
2022/07/22 02:17:14;;;;;;;2.05;1.50;;;19.10;99.90;;;;;;5113471;28;20284;-52
2022/07/22 02:19:42;;;;;;;2.13;1.52;;;19.10;99.90;;;;;;5112523;28;20822;-52
2022/07/22 02:22:11;;;;;;;1.50;1.40;;;19.10;99.90;;;;;;5112894;28;20203;-52
2022/07/22 02:24:39;;;;;;;1.88;1.60;;;19.10;99.90;;;;;;5112207;28;20204;-51
2022/07/22 02:27:07;;;;;;;1.80;1.70;;;19.20;99.90;;;;;;5113145;28;20227;-52
2022/07/22 02:29:36;;;;;;;2.75;1.92;;;19.10;99.90;;;;;;5110280;28;20199;-52
2022/07/22 02:32:05;;;;;;;2.03;1.60;;;19.10;99.90;;;;;;5112609;28;20231;-51
2022/07/22 02:34:33;;;;;;;1.80;1.70;;;19.20;99.90;;;;;;5112883;28;20219;-52
2022/07/22 02:37:02;;;;;;;2.75;1.90;;;19.20;99.90;;;;;;5111588;28;20243;-51
2022/07/22 02:39:30;;;;;;;1.95;1.85;;;19.20;99.90;;;;;;5112511;28;20631;-51
2022/07/22 02:41:58;;;;;;;3.22;1.77;;;19.20;99.90;;;;;;5112849;28;20269;-52
2022/07/22 02:44:26;;;;;;;2.08;1.88;;;19.20;99.90;;;;;;5112641;28;20265;-51
2022/07/22 02:46:56;;;;;;;2.63;1.80;;;19.20;99.90;;;;;;5112398;28;20277;-52
2022/07/22 02:49:24;;;;;;;2.20;2.00;;;19.20;99.90;;;;;;5112170;28;20203;-50
2022/07/22 02:51:52;;;;;;;2.33;1.90;;;19.20;99.90;;;;;;5111678;28;20353;-52
2022/07/22 02:54:20;;;;;;;3.10;1.83;;;19.20;99.90;;;;;;5111770;28;20233;-52
2022/07/22 02:56:48;;;;;;;2.13;1.80;;;19.20;99.90;;;;;;5111464;28;20631;-52
2022/07/22 02:59:16;;;;;;;2.72;1.90;;;19.20;99.90;;;;;;5112466;28;20200;-52
2022/07/22 03:01:44;;;;;;;2.30;2.10;;;19.20;99.90;;;;;;5117711;28;20605;-51
2022/07/22 03:04:14;;;;;;;3.15;2.30;;;19.20;99.90;;;;;;5117461;28;20207;-52
2022/07/22 03:06:42;;;;;;;2.67;2.05;;;19.10;99.90;;;;;;5113453;28;20228;-51
2022/07/22 03:09:10;;;;;;;3.03;2.00;;;19.20;99.90;;;;;;5112281;28;20215;-52
2022/07/22 03:11:38;;;;;;;1.83;1.73;;;19.10;99.90;;;;;;5111554;28;20704;-52
2022/07/22 03:14:08;;;;;;;2.05;1.90;;;19.10;99.90;;;;;;5111691;28;20648;-51
2022/07/22 03:16:36;;;;;;;2.20;2.00;;;19.10;99.90;;;;;;5111381;28;20249;-51
2022/07/22 03:19:04;;;;;;;2.92;2.05;;;19.10;99.90;;;;;;5111309;28;20222;-50
2022/07/22 03:21:34;;;;;;;5.22;2.10;;;19.10;99.90;;;;;;5111674;28;20269;-53
2022/07/22 03:24:02;;;;;;;2.13;1.90;;;19.10;99.90;;;;;;5111823;28;20253;-52
2022/07/22 03:26:30;;;;;;;2.20;1.98;;;19.10;99.90;;;;;;5111245;28;20236;-50
2022/07/22 03:28:58;;;;;;;2.25;1.77;;;19.10;99.90;;;;;;5111770;28;20713;-50
2022/07/22 03:31:27;;;;;;;2.88;1.88;;;19.10;99.90;;;;;;5111215;28;20372;-52
2022/07/22 03:33:55;;;;;;;3.33;1.90;;;19.10;99.90;;;;;;5111899;28;20199;-52
2022/07/22 03:36:24;;;;;;;2.10;1.90;;;19.10;99.90;;;;;;5111317;28;20246;-52
2022/07/22 03:38:53;;;;;;;5.22;1.83;;;19.10;99.90;;;;;;5111336;28;20280;-51
2022/07/22 03:41:22;;;;;;;2.25;2.05;;;19.20;99.90;;;;;;5111497;28;20208;-52
2022/07/22 03:43:50;;;;;;;3.13;1.73;;;19.10;99.90;;;;;;5111097;28;20260;-52
2022/07/22 03:46:18;;;;;;;2.15;1.90;;;19.20;99.90;;;;;;5111232;28;20227;-51
2022/07/22 03:48:46;;;;;;;3.05;2.00;;;19.10;99.90;;;;;;5110990;28;20241;-50
2022/07/22 03:51:15;;;;;;;3.67;2.30;;;19.10;99.90;;;;;;5111605;28;20212;-52
2022/07/22 03:53:43;;;;;;;2.15;1.95;;;19.10;99.90;;;;;;5110600;28;20203;-51
2022/07/22 03:56:13;;;;;;;2.70;2.05;;;19.10;99.90;;;;;;5111169;28;20230;-51
2022/07/22 03:58:41;;;;;;;2.58;2.38;;;19.10;99.90;;;;;;5111269;28;20207;-51
2022/07/22 04:01:09;;;;;;;3.25;2.10;;;19.10;99.90;;;;;;5111003;28;20203;-51
2022/07/22 04:03:38;;;;;;;4.88;2.47;;;19.00;99.90;;;;;;5110982;28;20696;-52
2022/07/22 04:06:07;;;;;;;2.47;2.20;;;19.00;99.90;;;;;;5110483;28;20280;-51
2022/07/22 04:08:35;;;;;;;3.42;2.03;;;19.10;99.90;;;;;;5110735;28;20207;-51
2022/07/22 04:11:03;;;;;;;4.75;2.10;;;19.10;99.90;;;;;;5110652;28;20208;-52
2022/07/22 04:13:33;;;;;;;3.22;2.10;;;19.10;99.90;;;;;;5111260;28;20231;-52
2022/07/22 04:16:01;;;;;;;3.05;2.22;;;19.10;99.90;;;;;;5110810;28;20722;-52
2022/07/22 04:18:31;;;;;;;2.30;2.10;;;19.10;99.90;;;;;;5110018;28;20240;-52
2022/07/22 04:20:59;;;;;;;2.25;1.80;;;19.10;99.90;;;;;;5110342;28;20219;-52
2022/07/22 04:23:27;;;;;;;3.67;2.08;;;19.10;99.90;;;;;;5109378;28;20343;-51
2022/07/22 04:25:55;;;;;;;2.63;2.17;;;19.10;99.90;;;;;;5110400;28;20665;-52
2022/07/22 04:28:24;;;;;;;2.83;2.60;;;19.20;99.90;;;;;;5110910;28;20260;-52
2022/07/22 04:30:53;;;;;;;2.42;2.13;;;19.20;99.90;;;;;;5110761;28;20252;-51
2022/07/22 04:33:21;;;;;;;3.03;2.40;;;19.20;99.90;;;;;;5110223;28;20258;-51
2022/07/22 04:35:49;;;;;;;2.83;2.63;;;19.30;99.90;;;;;;5110098;28;20285;-52
2022/07/22 04:38:18;;;;;;;3.05;2.65;;;19.30;99.90;;;;;;5110387;28;20775;-52
2022/07/22 04:40:46;;;;;;;3.45;2.92;;;19.40;99.90;;;;;;5110358;28;20207;-52
2022/07/22 04:43:21;;;;;;;5.40;2.70;;;19.50;99.90;;;;;;5110708;28;20203;-52
2022/07/22 04:45:49;;;;;;;5.43;2.75;;;19.60;99.90;;;;;;5109973;28;20718;-52
2022/07/22 04:48:19;;;;;;;3.33;2.95;;;20.00;99.90;;;;;;5109948;28;20660;-51
2022/07/22 04:50:47;;;;;;;2.95;2.65;;;20.20;99.90;;;;;;5110675;28;20555;-51
2022/07/22 04:53:15;;;;;;;2.80;2.60;;;20.70;99.90;;;;;;5110181;28;20227;-51
2022/07/22 04:55:44;;;;;;;3.15;2.75;;;20.50;99.90;;;;;;5110322;28;20727;-51
2022/07/22 04:58:12;;;;;;;2.70;2.50;;;20.40;99.90;;;;;;5110729;28;20994;-52
2022/07/22 05:00:44;;;;;;;3.63;2.70;;;20.40;99.90;;;;;;5109714;28;20207;-52
2022/07/22 05:03:12;;;;;;;3.45;2.70;;;20.40;99.90;;;;;;5109758;28;20251;-52
2022/07/22 05:05:42;;;;;;;3.70;2.30;;;20.30;99.90;;;;;;5109840;28;20292;-52
2022/07/22 05:08:10;;;;;;;4.40;2.63;;;20.30;99.90;;;;;;5109937;28;20207;-51
2022/07/22 05:10:38;;;;;;;3.38;3.00;;;20.30;99.90;;;;;;5109845;28;20260;-51
2022/07/22 05:13:07;;;;;;;2.95;2.42;;;20.30;99.90;;;;;;5110355;28;20270;-51
2022/07/22 05:15:35;;;;;;;3.85;3.30;;;20.20;99.90;;;;;;5110329;28;20230;-53
2022/07/22 05:18:03;;;;;;;3.92;2.60;;;20.20;99.90;;;;;;5110029;28;20208;-52
2022/07/22 05:20:31;;;;;;;2.97;2.78;;;20.20;99.90;;;;;;5114098;28;20223;-51
2022/07/22 05:23:01;;;;;;;3.13;2.83;;;20.20;99.90;;;;;;5114082;28;20253;-51
2022/07/22 05:25:29;;;;;;;3.95;2.90;;;20.30;99.90;;;;;;5113925;28;20230;-52
2022/07/22 05:27:57;;;;;;;3.78;3.38;;;20.30;99.90;;;;;;5113445;28;20200;-52
2022/07/22 05:30:25;;;;;;;6.20;3.38;;;20.30;99.90;;;;;;5113912;28;20208;-52
2022/07/22 05:32:54;;;;;;;3.60;3.10;;;20.40;99.90;;;;;;5113764;28;20227;-50
2022/07/22 05:35:22;;;;;;;3.28;2.95;;;20.40;99.90;;;;;;5102171;28;20221;-51
2022/07/22 05:37:51;;;;;;;3.85;2.78;;;20.30;99.90;;;;;;5098295;28;20207;-50
2022/07/22 05:40:20;;;;;;;3.50;2.55;;;20.30;99.90;;;;;;5097081;28;20203;-52
2022/07/22 05:42:49;;;;;;;2.83;2.53;;;20.30;99.90;;;;;;5096080;28;20233;-51
2022/07/22 05:45:17;;;;;;;2.75;2.55;;;20.30;99.90;;;;;;5100489;28;20606;-52
2022/07/22 05:47:45;;;;;;;4.80;2.70;;;20.40;99.90;;;;;;5095235;28;20196;-51
2022/07/22 05:50:13;;;;;;;2.47;2.28;;;20.40;99.90;;;;;;5096437;28;20215;-51
2022/07/22 05:52:42;;;;;;;2.70;2.28;;;20.40;99.90;;;;;;5097771;28;20785;-52
2022/07/22 05:55:10;;;;;;;2.25;2.15;;;20.50;99.90;;;;;;5110195;28;20239;-51
2022/07/22 05:57:40;;;;;;;2.40;2.20;;;20.60;99.90;;;;;;5106182;28;20226;-51
2022/07/22 06:00:09;;;;;;;2.58;1.90;;;20.60;99.90;;;;;;5106365;28;20270;-51
2022/07/22 06:02:37;;;;;;;3.08;2.22;;;20.60;99.90;;;;;;5098759;28;20276;-51
2022/07/22 06:05:06;;;;;;;2.38;2.17;;;20.60;99.90;;;;;;5112696;28;20257;-52
2022/07/22 06:07:34;;;;;;;2.08;1.98;;;20.50;99.90;;;;;;5109271;28;20203;-51
2022/07/22 06:10:02;;;;;;;3.42;2.30;;;20.60;99.90;;;;;;5109589;28;20204;-51
2022/07/22 06:12:31;;;;;;;2.42;2.20;;;20.60;99.90;;;;;;5104701;28;20204;-51
2022/07/22 06:15:00;;;;;;;2.10;1.90;;;20.50;99.90;;;;;;5104374;28;20269;-51
2022/07/22 06:17:29;;;;;;;2.53;2.33;;;20.50;99.90;;;;;;5110914;28;20215;-51
2022/07/22 06:19:57;;;;;;;2.70;2.50;;;20.60;99.90;;;;;;5111969;28;20677;-51
2022/07/22 06:22:25;;;;;;;2.80;2.60;;;20.60;99.90;;;;;;5112181;28;20268;-51
2022/07/22 06:24:54;;;;;;;2.80;2.50;;;20.60;99.90;;;;;;5111988;28;20192;-51
2022/07/22 06:27:22;;;;;;;2.50;2.30;;;20.60;99.90;;;;;;5111860;28;20265;-52
2022/07/22 06:29:50;;;;;;;3.70;2.97;;;20.60;99.90;;;;;;5109989;28;20203;-51
2022/07/22 06:32:19;;;;;;;3.33;3.03;;;20.60;99.90;;;;;;5100494;28;20211;-50
2022/07/22 06:34:48;;;;;;;3.08;2.80;;;20.50;99.90;;;;;;5095307;28;20215;-52
2022/07/22 06:37:16;;;;;;;3.50;2.90;;;20.50;99.90;;;;;;5103270;28;20230;-52
2022/07/22 06:39:46;;;;;;;3.40;3.10;;;20.50;99.90;;;;;;5110971;28;20226;-52
2022/07/22 06:42:15;;;;;;;3.35;3.05;;;20.50;99.90;;;;;;5110878;28;20211;-52
2022/07/22 06:44:43;;;;;;;3.90;3.10;;;20.60;99.90;;;;;;5110359;28;20203;-52
2022/07/22 06:47:11;;;;;;;2.90;2.70;;;20.60;99.90;;;;;;5110374;28;20647;-52
2022/07/22 06:49:52;;;;;;;2.90;2.70;;;20.50;99.90;;;;;;5110623;28;20630;-50
2022/07/22 06:52:21;;;;;;;3.00;2.80;;;20.70;99.90;;;;;;5100871;28;20207;-52
2022/07/22 06:54:49;;;;;;;3.58;3.28;;;20.80;99.90;;;;;;5110086;28;20295;-51
2022/07/22 06:57:17;;;;;;;3.42;2.92;;;20.90;99.90;;;;;;5110168;27;20253;-52
2022/07/22 06:59:45;;;;;;;3.33;3.03;;;21.00;99.90;;;;;;5110066;28;20609;-52
2022/07/22 07:02:14;;;;;;;3.72;3.42;;;21.10;99.90;;;;;;5109814;27;20211;-51
2022/07/22 07:04:45;;;;;;;2.95;2.75;;;21.30;99.90;;;;;;5110895;28;20203;-52
2022/07/22 07:07:13;;;;;;;3.92;2.80;;;21.30;99.90;;;;;;5110469;28;20224;-51
2022/07/22 07:09:46;;;;;;;3.88;3.53;;;21.30;99.90;;;;;;5103517;28;20261;-51
2022/07/22 07:12:14;;;;;;;3.35;3.05;;;21.30;99.90;;;;;;5110718;28;20204;-51
2022/07/22 07:14:42;;;;;;;4.15;3.40;;;21.30;99.90;;;;;;5111151;28;20215;-51
2022/07/22 07:17:30;;;;;;;4.70;3.65;;;21.30;99.90;;;;;;5105307;28;20246;-51
2022/07/22 07:20:00;;;;;;;3.38;3.08;;;21.30;99.90;;;;;;5105910;28;20215;-52
2022/07/22 07:22:28;;;;;;;3.75;3.08;;;21.40;99.90;;;;;;5110289;28;20207;-52
2022/07/22 07:24:56;;;;;;;3.72;2.42;;;21.40;99.90;;;;;;5110305;28;20248;-52
2022/07/22 07:27:25;;;;;;;3.28;2.97;;;21.30;99.90;;;;;;5110719;28;20218;-52
2022/07/22 07:29:53;;;;;;;3.25;2.95;;;21.30;99.90;;;;;;5102194;28;20265;-52
2022/07/22 07:32:21;;;;;;;3.20;2.90;;;21.30;99.90;;;;;;5101317;28;20216;-51
2022/07/22 07:34:49;;;;;;;3.42;3.13;;;21.20;99.90;;;;;;5106846;27;20272;-52
2022/07/22 07:37:19;;;;;;;3.97;3.00;;;21.20;99.90;;;;;;5111699;27;20631;-51
2022/07/22 07:39:47;;;;;;;3.50;3.20;;;21.20;99.90;;;;;;5104951;28;20204;-52
2022/07/22 07:42:16;;;;;;;3.17;2.92;;;21.30;99.90;;;;;;5107106;28;20203;-52
2022/07/22 07:44:44;;;;;;;3.60;3.30;;;21.40;99.90;;;;;;5106942;28;20203;-52
2022/07/22 07:47:13;;;;;;;3.20;2.90;;;21.50;99.90;;;;;;5103850;28;20224;-52
2022/07/22 07:49:41;;;;;;;3.40;3.10;;;21.60;99.90;;;;;;5106253;28;20211;-52
2022/07/22 07:52:09;;;;;;;3.15;2.85;;;21.60;99.90;;;;;;5106443;28;20810;-52
2022/07/22 07:54:41;;;;;;;3.40;3.10;;;21.70;99.90;;;;;;5106576;28;20231;-52
2022/07/22 07:57:29;;;;;;;4.20;3.00;;;21.70;99.90;;;;;;5094717;28;20239;-52
2022/07/22 07:59:58;;;;;;;3.78;2.90;;;21.80;99.90;;;;;;5102074;28;20203;-51
2022/07/22 08:02:26;;;;;;;3.42;3.03;;;21.80;99.90;;;;;;5108726;28;20704;-52
2022/07/22 08:04:54;;;;;;;3.88;3.03;;;21.90;99.90;;;;;;5108816;28;20218;-52
2022/07/22 08:07:26;;;;;;;2.95;2.75;;;22.00;99.90;;;;;;5108708;28;20203;-52
2022/07/22 08:09:59;;;;;;;3.08;2.78;;;22.10;99.90;;;;;;5108989;28;20581;-52
2022/07/22 08:12:47;;;;;;;2.90;2.70;;;22.10;99.90;;;;;;5109640;28;20262;-51
2022/07/22 08:15:15;;;;;;;3.20;2.90;;;22.30;99.90;;;;;;5109388;28;20231;-52
2022/07/22 08:17:44;;;;;;;3.15;2.85;;;22.30;99.90;;;;;;5109086;28;20661;-52
2022/07/22 08:20:13;;;;;;;6.53;3.10;;;22.30;99.90;;;;;;5108669;28;20211;-52
2022/07/22 08:22:48;;;;;;;3.65;3.00;;;22.20;99.90;;;;;;5108014;28;20203;-52
2022/07/22 08:25:18;;;;;;;3.15;2.85;;;22.30;99.90;;;;;;5108008;28;20228;-52
2022/07/22 08:27:46;;;;;;;9.07;2.80;;;22.20;99.90;;;;;;5094534;28;20199;-52
2022/07/22 08:30:15;;;;;;;3.90;2.70;;;22.20;99.90;;;;;;5108983;28;20203;-52
2022/07/22 08:32:43;;;;;;;3.40;2.50;;;22.10;99.90;;;;;;5108349;28;20199;-52
2022/07/22 08:35:12;;;;;;;3.08;2.78;;;22.20;99.90;;;;;;5108072;28;20240;-52
2022/07/22 08:37:40;;;;;;;2.75;2.35;;;22.10;99.90;;;;;;5107527;28;20253;-52
2022/07/22 08:40:10;;;;;;;3.05;2.80;;;22.10;99.90;;;;;;5100838;28;20207;-52
2022/07/22 08:42:41;;;;;;;3.10;2.80;;;22.10;99.90;;;;;;5097511;28;20199;-51
2022/07/22 08:45:11;;;;;;;3.40;3.10;;;22.10;99.90;;;;;;5106771;28;20199;-53
2022/07/22 08:47:47;;;;;;;4.07;3.20;;;22.20;99.90;;;;;;5101949;28;20822;-51
2022/07/22 08:50:15;;;;;;;3.90;3.30;;;22.20;99.90;;;;;;5104908;28;20235;-52
2022/07/22 08:52:44;;;;;;;3.17;2.90;;;22.20;99.90;;;;;;5106213;28;20208;-52
2022/07/22 08:55:12;;;;;;;3.50;3.20;;;22.30;99.90;;;;;;5106568;28;20283;-52
2022/07/22 08:57:46;;;;;;;4.82;3.17;;;22.40;99.90;;;;;;5107143;28;20707;-52
2022/07/22 09:00:17;;;;;;;3.55;3.25;;;22.30;99.90;;;;;;5107448;28;20199;-52
2022/07/22 09:02:45;;;;;;;4.72;4.22;;;22.50;99.90;;;;;;5108786;28;20213;-52
2022/07/22 09:05:15;;;;;;;4.72;4.25;;;22.50;99.90;;;;;;5108232;28;20268;-52
2022/07/22 09:08:04;;;;;;;5.10;4.70;;;22.70;99.90;;;;;;5107541;28;20731;-52
2022/07/22 09:10:33;;;;;;;5.00;4.50;;;22.90;99.90;;;;;;5103156;28;20204;-52
2022/07/22 09:13:05;;;;;;;4.78;4.28;;;23.00;99.90;;;;;;5107069;28;20226;-52
2022/07/22 09:15:35;;;;;;;4.88;4.47;;;23.20;99.90;;;;;;5093239;28;20304;-51
2022/07/22 09:18:05;;;;;;;4.68;4.28;;;23.30;99.90;;;;;;5089118;28;20208;-52
2022/07/22 09:20:35;;;;;;;4.90;4.50;;;23.40;99.90;;;;;;5102442;28;20207;-52
2022/07/22 09:23:10;;;;;;;4.90;4.47;;;23.50;99.90;;;;;;5103620;28;20199;-52
2022/07/22 09:25:40;;;;;;;5.70;4.85;;;23.70;99.90;;;;;;5106585;28;20230;-52
2022/07/22 09:28:16;;;;;;;5.82;5.32;;;23.70;99.90;;;;;;5107416;28;20207;-53
2022/07/22 09:30:49;;;;;;;5.65;5.15;;;24.00;99.90;;;;;;5098604;28;20195;-52
2022/07/22 09:33:20;;;;;;;5.45;4.95;;;24.00;99.90;;;;;;5105899;28;20208;-52
2022/07/22 09:35:49;;;;;;;6.70;5.65;;;23.80;99.90;;;;;;5104359;28;20845;-52
2022/07/22 09:38:20;;;;;;;5.63;5.13;;;23.80;99.90;;;;;;5108230;28;20309;-53
2022/07/22 09:40:49;;;;;;;6.72;6.15;;;24.30;99.90;;;;;;5107562;28;20211;-53
2022/07/22 09:43:20;;;;;;;6.60;5.90;;;24.30;99.90;;;;;;5108111;28;20366;-52
2022/07/22 09:45:56;;;;;;;6.68;6.00;;;24.40;99.90;;;;;;5108107;28;20274;-52
2022/07/22 09:48:26;;;;;;;7.10;6.10;;;24.50;99.90;;;;;;5108291;28;20734;-52
2022/07/22 09:50:56;;;;;;;6.22;5.60;;;24.50;99.90;;;;;;5101344;28;20250;-53
2022/07/22 09:53:27;;;;;;;6.65;6.05;;;24.70;99.90;;;;;;5096654;28;20681;-53
2022/07/22 09:55:56;;;;;;;6.50;5.72;;;24.80;99.90;;;;;;5100884;28;20224;-53
2022/07/22 09:58:26;;;;;;;5.95;5.30;;;24.60;99.90;;;;;;5109125;28;20710;-53
2022/07/22 10:01:00;;;;;;;7.32;5.63;;;24.50;99.90;;;;;;5106410;28;20199;-52
2022/07/22 10:03:30;;;;;;;6.18;5.57;;;24.40;99.90;;;;;;5108159;28;20211;-53
2022/07/22 10:05:59;;;;;;;4.72;4.32;;;24.50;99.90;;;;;;5112259;28;20215;-52
2022/07/22 10:08:29;;;;;;;5.60;5.10;;;24.60;99.90;;;;;;5112501;28;20672;-52
2022/07/22 10:11:00;;;;;;;5.90;5.40;;;24.70;99.90;;;;;;5104220;28;20688;-52
2022/07/22 10:13:31;;;;;;;6.13;5.60;;;24.60;99.90;;;;;;5099969;28;20706;-52
2022/07/22 10:16:00;;;;;;;6.90;6.20;;;24.70;99.90;;;;;;5097859;28;20685;-56
2022/07/22 10:18:30;;;;;;;5.78;5.28;;;24.80;99.90;;;;;;5093715;28;20208;-52
2022/07/22 10:21:03;;;;;;;5.90;5.32;;;24.90;99.90;;;;;;5110619;28;20998;-52
2022/07/22 10:23:31;;;;;;;5.70;5.20;;;24.80;99.90;;;;;;5111110;28;20249;-53
2022/07/22 10:26:01;;;;;;;5.45;4.95;;;24.80;99.90;;;;;;5110364;28;20228;-53
2022/07/22 10:28:32;;;;;;;5.05;4.65;;;24.60;99.90;;;;;;5111842;28;20260;-53
2022/07/22 10:31:21;;;;;;;4.75;4.30;;;24.70;99.90;;;;;;5111077;28;20200;-52
2022/07/22 10:33:52;;;;;;;5.25;4.85;;;24.90;99.90;;;;;;5098733;28;20231;-52
2022/07/22 10:36:42;;;;;;;5.28;4.78;;;24.90;99.90;;;;;;5105259;28;20268;-52
2022/07/22 10:39:12;;;;;;;5.60;5.10;;;24.70;99.90;;;;;;5092701;28;20239;-52
2022/07/22 10:41:43;;;;;;;6.90;5.55;;;25.00;99.90;;;;;;5098941;28;20200;-52
2022/07/22 10:44:47;;;;;;;4.72;4.32;;;25.00;99.90;;;;;;5109073;28;20664;-52
2022/07/22 10:47:55;;;;;;;5.13;4.68;;;24.90;99.90;;;;;;5104720;28;20859;-52
2022/07/22 10:50:49;;;;;;;5.13;4.63;;;24.80;99.90;;;;;;5101544;28;20217;-52
2022/07/22 10:53:20;;;;;;;6.18;5.15;;;24.80;99.90;;;;;;5099107;28;20207;-51
2022/07/22 10:56:13;;;;;;;6.82;5.13;;;24.90;99.90;;;;;;5108469;28;20272;-51
2022/07/22 10:58:58;;;;;;;5.25;4.75;;;25.00;99.90;;;;;;5109807;28;20256;-51
2022/07/22 11:01:31;;;;;;;5.90;5.40;;;24.80;99.90;;;;;;5108277;28;20248;-51
2022/07/22 11:04:15;;;;;;;5.82;5.32;;;24.60;99.90;;;;;;5109589;28;20572;-51
2022/07/22 11:06:47;;;;;;;6.03;5.53;;;24.60;99.90;;;;;;5103464;28;20310;-51
2022/07/22 11:09:16;;;;;;;5.90;5.40;;;24.50;99.90;;;;;;5108756;28;20213;-51
2022/07/22 11:11:49;;;;;;;6.03;5.43;;;24.50;99.90;;;;;;5110752;28;20294;-50
2022/07/22 11:14:26;;;;;;;5.85;5.35;;;24.30;99.90;;;;;;5111037;28;20199;-51
2022/07/22 11:16:58;;;;;;;6.53;5.80;;;24.20;99.90;;;;;;5110266;28;20227;-52
2022/07/22 11:19:28;;;;;;;6.55;5.72;;;24.40;99.90;;;;;;5110579;28;20208;-51
2022/07/22 11:21:58;;;;;;;7.65;5.53;;;24.70;99.90;;;;;;5109477;28;20214;-51
2022/07/22 11:24:27;;;;;;;5.70;4.95;;;24.80;99.90;;;;;;5105378;28;20219;-51
2022/07/22 11:26:58;;;;;;;5.85;5.28;;;24.80;99.90;;;;;;5109764;28;20252;-51
2022/07/22 11:29:34;;;;;;;5.40;5.00;;;24.70;99.90;;;;;;5110045;28;20234;-51
2022/07/22 11:32:06;;;;;;;6.03;5.53;;;24.80;99.90;;;;;;5109615;28;20677;-51
2022/07/22 11:34:38;;;;;;;6.57;6.00;;;24.90;99.90;;;;;;5109609;28;20203;-51
2022/07/22 11:37:06;;;;;;;5.97;5.47;;;24.90;99.90;;;;;;5110136;28;20284;-51
2022/07/22 11:39:35;;;;;;;6.13;5.45;;;24.70;99.90;;;;;;5110011;28;20222;-52
2022/07/22 11:42:03;;;;;;;7.07;5.32;;;24.90;99.90;;;;;;5111699;28;20273;-51
2022/07/22 11:44:33;;;;;;;7.05;5.53;;;24.80;99.90;;;;;;5111082;28;20207;-51
2022/07/22 11:47:02;;;;;;;7.00;6.22;;;24.80;99.90;;;;;;5110534;28;20273;-52
2022/07/22 11:49:33;;;;;;;7.50;6.80;;;24.80;99.90;;;;;;5110857;28;21021;-52
2022/07/22 11:52:01;;;;;;;7.50;6.55;;;24.60;99.90;;;;;;5110654;28;20277;-51
2022/07/22 11:54:30;;;;;;;6.40;5.78;;;24.50;99.90;;;;;;5110664;28;20208;-51
2022/07/22 11:56:58;;;;;;;6.97;5.53;;;24.60;99.90;;;;;;5111014;28;20227;-51
2022/07/22 11:59:26;;;;;;;6.00;5.45;;;24.70;99.90;;;;;;5110998;28;20203;-52
2022/07/22 12:01:54;;;;;;;6.32;5.70;;;24.90;99.90;;;;;;5109577;28;20199;-51
2022/07/22 12:04:25;;;;;;;5.75;5.07;;;25.00;99.90;;;;;;5110663;28;20211;-50
2022/07/22 12:06:58;;;;;;;6.00;5.30;;;25.20;99.90;;;;;;5110480;28;20315;-52
2022/07/22 12:09:29;;;;;;;5.68;5.18;;;25.20;99.90;;;;;;5109586;28;20733;-52
2022/07/22 12:11:58;;;;;;;5.90;5.40;;;25.30;99.90;;;;;;5110626;28;20218;-51
2022/07/22 12:14:28;;;;;;;6.05;5.47;;;25.30;99.90;;;;;;5109859;28;20204;-50
2022/07/22 12:16:58;;;;;;;5.68;5.18;;;25.40;99.90;;;;;;5110808;28;20227;-51
2022/07/22 12:19:29;;;;;;;6.43;5.80;;;25.50;99.90;;;;;;5111381;28;20216;-52
2022/07/22 12:22:03;;;;;;;5.88;5.38;;;25.70;99.90;;;;;;5110641;28;20208;-52
2022/07/22 12:24:32;;;;;;;6.53;5.93;;;25.80;99.90;;;;;;5109279;28;20208;-51
2022/07/22 12:27:02;;;;;;;6.30;5.80;;;25.70;99.90;;;;;;5110350;28;20219;-51
2022/07/22 12:29:41;;;;;;;8.13;6.60;;;25.80;99.90;;;;;;5109212;28;20241;-51
2022/07/22 12:32:11;;;;;;;7.05;6.35;;;25.80;99.90;;;;;;5099539;28;20200;-51
2022/07/22 12:34:40;;;;;;;7.38;6.68;;;25.80;99.90;;;;;;5109488;28;20203;-51
2022/07/22 12:37:19;;;;;;;7.13;6.32;;;25.60;99.90;;;;;;5109027;28;20220;-51
2022/07/22 12:39:58;;;;;;;7.10;6.40;;;25.60;99.90;;;;;;5098351;28;20199;-52
2022/07/22 12:42:28;;;;;;;6.63;6.05;;;25.60;99.90;;;;;;5108508;28;20351;-51
2022/07/22 12:45:03;;;;;;;6.50;5.88;;;25.40;99.90;;;;;;5109757;28;20203;-51
2022/07/22 12:47:44;;;;;;;6.90;6.20;;;25.50;99.90;;;;;;5109250;28;20199;-51
2022/07/22 12:50:17;;;;;;;6.47;5.88;;;25.50;99.90;;;;;;5109161;28;20290;-51
2022/07/22 12:52:47;;;;;;;7.07;6.38;;;25.60;99.90;;;;;;5100143;28;20201;-51
2022/07/22 12:55:37;;;;;;;6.10;5.53;;;25.70;99.90;;;;;;5109353;28;20247;-51
2022/07/22 12:58:06;;;;;;;6.05;5.45;;;26.00;99.90;;;;;;5102083;28;20282;-51
2022/07/22 13:00:37;;;;;;;7.78;6.00;;;26.10;99.90;;;;;;5108837;28;20242;-51
2022/07/22 13:03:05;;;;;;;6.90;6.25;;;26.10;99.90;;;;;;5109884;28;20214;-51